Time;durP1;ratioP1;P1;durP2;ratioP2;P2;SDS_P1;SDS_P2;PMS_P1;PMS_P2;Temp;Humidity;BMP_temperature;BMP_pressure;BME280_temperature;BME280_humidity;BME280_pressure;Samples;Min_cycle;Max_cycle;Signal;HPM_P1;HPM_P2
2021/08/26 00:06:44;;;;;;;7.20;5.63;;;;;;;12.44;70.41;95540.22;5031999;28;20235;-77
2021/08/26 00:09:10;;;;;;;10.40;6.93;;;;;;;12.42;70.52;95536.97;5047814;28;20202;-77
2021/08/26 00:11:36;;;;;;;10.03;6.63;;;;;;;12.37;70.74;95534.88;5030484;28;20181;-77
2021/08/26 00:14:02;;;;;;;8.10;5.80;;;;;;;12.33;70.80;95537.94;5030683;28;20171;-77
2021/08/26 00:16:27;;;;;;;12.13;5.97;;;;;;;12.30;70.98;95531.25;5030501;28;20185;-78
2021/08/26 00:18:53;;;;;;;10.73;6.33;;;;;;;12.33;70.83;95524.91;5029922;28;20739;-77
2021/08/26 00:21:18;;;;;;;9.13;6.63;;;;;;;12.25;71.15;95525.69;5047075;28;20194;-78
2021/08/26 00:23:44;;;;;;;9.90;6.03;;;;;;;12.26;71.05;95523.91;5030531;28;20199;-78
2021/08/26 00:26:10;;;;;;;9.67;6.90;;;;;;;12.24;71.20;95520.66;5048384;28;20654;-79
2021/08/26 00:28:35;;;;;;;10.87;6.73;;;;;;;12.24;71.07;95523.25;5046257;28;20205;-76
2021/08/26 00:31:01;;;;;;;7.37;5.77;;;;;;;12.26;71.17;95529.13;5030767;28;20182;-77
2021/08/26 00:33:26;;;;;;;10.77;6.17;;;;;;;12.23;71.07;95521.63;5029815;28;20522;-77
2021/08/26 00:35:52;;;;;;;11.50;6.77;;;;;;;12.15;71.25;95525.00;5030183;28;20229;-77
2021/08/26 00:38:20;;;;;;;8.23;6.03;;;;;;;12.14;71.41;95526.00;5046731;28;20198;-78
2021/08/26 00:40:46;;;;;;;8.33;5.87;;;;;;;12.19;71.23;95527.16;5013138;28;20690;-78
2021/08/26 00:43:13;;;;;;;8.43;6.20;;;;;;;12.14;71.15;95526.81;5010819;28;20211;-79
2021/08/26 00:45:38;;;;;;;11.00;6.50;;;;;;;12.16;71.36;95527.47;5007295;28;20191;-77
2021/08/26 00:48:04;;;;;;;8.67;6.27;;;;;;;12.22;71.05;95525.22;5030335;28;20239;-77
2021/08/26 00:50:30;;;;;;;8.57;5.90;;;;;;;12.21;71.12;95516.59;5030414;28;20550;-77
2021/08/26 00:52:56;;;;;;;8.50;6.67;;;;;;;12.15;71.09;95515.41;5029630;28;20182;-78
2021/08/26 00:55:21;;;;;;;7.97;6.23;;;;;;;12.15;71.07;95517.22;5030052;28;20186;-77
2021/08/26 00:57:47;;;;;;;9.13;6.13;;;;;;;12.16;71.21;95521.44;5022644;28;20241;-77
2021/08/26 01:00:12;;;;;;;9.97;6.70;;;;;;;12.14;71.12;95507.78;4995345;28;20594;-77
2021/08/26 01:03:03;;;;;;;9.87;6.40;;;;;;;12.13;71.35;95501.75;5013366;28;20221;-78
2021/08/26 01:05:42;;;;;;;8.20;6.23;;;;;;;12.22;70.83;95499.19;5016299;28;20175;-78
2021/08/26 01:08:16;;;;;;;8.27;5.93;;;;;;;12.19;70.72;95492.47;5015324;28;20199;-78
2021/08/26 01:10:44;;;;;;;11.17;6.77;;;;;;;12.13;71.13;95488.75;5015173;28;20178;-78
2021/08/26 01:13:09;;;;;;;9.63;6.40;;;;;;;12.10;71.17;95494.28;5014431;28;20202;-78
2021/08/26 01:15:35;;;;;;;8.17;6.37;;;;;;;12.10;70.99;95489.06;5014749;28;20639;-77
2021/08/26 01:18:00;;;;;;;8.03;6.17;;;;;;;12.07;71.23;95491.97;5012677;28;20214;-79
2021/08/26 01:20:25;;;;;;;8.53;6.07;;;;;;;12.03;71.24;95493.25;4998689;28;20198;-78
2021/08/26 01:22:51;;;;;;;7.57;5.37;;;;;;;11.98;71.65;95492.09;5013284;28;20203;-77
2021/08/26 01:25:19;;;;;;;7.77;5.80;;;;;;;11.95;71.72;95480.22;5013732;28;20693;-77
2021/08/26 01:28:02;;;;;;;7.77;5.77;;;;;;;11.97;71.53;95480.88;5013728;28;20217;-77
2021/08/26 01:30:30;;;;;;;8.30;5.90;;;;;;;11.95;71.78;95477.63;5013842;28;20186;-77
2021/08/26 01:32:58;;;;;;;11.37;6.27;;;;;;;11.93;71.44;95471.75;5012960;28;20175;-77
2021/08/26 01:35:28;;;;;;;8.60;6.03;;;;;;;11.93;71.55;95473.53;5027571;28;20187;-78
2021/08/26 01:37:54;;;;;;;9.00;6.30;;;;;;;11.91;71.67;95473.69;4997243;28;20207;-77
2021/08/26 01:40:41;;;;;;;9.80;6.13;;;;;;;11.88;71.69;95468.81;5014277;28;20671;-78
2021/08/26 01:43:11;;;;;;;8.90;5.87;;;;;;;11.88;71.62;95471.41;5013118;28;20206;-78
2021/08/26 01:45:38;;;;;;;7.93;6.17;;;;;;;11.86;71.72;95473.34;5013667;28;20608;-77
2021/08/26 01:48:03;;;;;;;9.57;5.73;;;;;;;11.84;71.88;95464.91;5013433;28;20548;-78
2021/08/26 01:50:28;;;;;;;11.23;6.87;;;;;;;11.82;72.13;95465.03;5014815;28;20223;-78
2021/08/26 01:52:54;;;;;;;9.93;6.17;;;;;;;11.78;71.96;95465.50;5012793;28;20199;-78
2021/08/26 01:55:19;;;;;;;9.97;6.20;;;;;;;11.80;72.12;95468.78;4997816;28;20272;-78
2021/08/26 01:57:44;;;;;;;8.10;6.47;;;;;;;11.77;72.24;95471.66;4996694;28;20218;-78
2021/08/26 02:00:10;;;;;;;9.57;6.30;;;;;;;11.83;71.73;95464.06;5014757;28;20211;-78
2021/08/26 02:02:36;;;;;;;9.20;6.97;;;;;;;11.82;72.01;95478.03;5013092;28;20210;-78
2021/08/26 02:05:01;;;;;;;10.40;6.23;;;;;;;11.85;71.78;95475.16;5013819;28;20270;-78
2021/08/26 02:07:26;;;;;;;9.37;6.40;;;;;;;11.85;71.79;95474.34;5014526;28;20207;-78
2021/08/26 02:09:52;;;;;;;8.80;6.70;;;;;;;11.83;71.79;95469.25;5013160;28;20210;-78
2021/08/26 02:12:17;;;;;;;11.87;6.80;;;;;;;11.82;72.29;95467.63;5011751;28;20203;-77
2021/08/26 02:14:42;;;;;;;8.53;6.70;;;;;;;11.83;72.12;95473.66;5014614;28;20266;-77
2021/08/26 02:17:08;;;;;;;7.17;6.20;;;;;;;11.83;72.10;95476.25;4997418;28;20211;-77
2021/08/26 02:19:34;;;;;;;8.50;6.03;;;;;;;11.83;72.05;95474.47;5012583;28;20214;-78
2021/08/26 02:21:59;;;;;;;10.00;5.77;;;;;;;11.84;72.10;95477.91;5013214;28;20180;-78
2021/08/26 02:24:25;;;;;;;7.83;6.20;;;;;;;11.81;72.60;95465.19;5013619;28;20175;-78
2021/08/26 02:26:50;;;;;;;8.30;6.07;;;;;;;11.82;72.28;95469.44;5013989;28;20194;-78
2021/08/26 02:29:15;;;;;;;8.60;6.63;;;;;;;11.78;72.36;95461.09;5013601;28;20171;-78
2021/08/26 02:31:41;;;;;;;8.77;6.57;;;;;;;11.77;72.57;95463.88;5013277;28;20199;-78
2021/08/26 02:34:06;;;;;;;9.50;7.33;;;;;;;11.79;72.64;95460.13;5013476;28;20180;-78
2021/08/26 02:36:31;;;;;;;11.00;6.97;;;;;;;11.75;72.72;95455.38;5025087;28;20175;-77
2021/08/26 02:38:57;;;;;;;9.90;6.93;;;;;;;11.74;72.86;95458.94;5034751;28;20195;-77
2021/08/26 02:41:22;;;;;;;10.63;6.97;;;;;;;11.72;72.87;95447.91;5017745;28;20201;-77
2021/08/26 02:43:48;;;;;;;9.10;6.93;;;;;;;11.68;73.34;95441.38;5033620;28;20620;-76
2021/08/26 02:46:13;;;;;;;9.93;6.57;;;;;;;11.74;72.81;95431.16;5017599;28;20247;-76
2021/08/26 02:48:38;;;;;;;9.37;7.07;;;;;;;11.72;73.34;95424.50;5034080;28;20199;-77
2021/08/26 02:51:04;;;;;;;9.37;6.90;;;;;;;11.76;73.04;95420.63;5018562;28;20262;-77
2021/08/26 02:53:29;;;;;;;9.70;6.97;;;;;;;11.78;72.96;95413.47;5011302;28;20174;-77
2021/08/26 02:55:57;;;;;;;9.07;7.07;;;;;;;11.86;72.49;95413.50;5012342;28;20190;-77
2021/08/26 02:58:23;;;;;;;12.20;6.90;;;;;;;11.90;72.55;95414.81;5012170;28;20211;-77
2021/08/26 03:00:48;;;;;;;10.87;6.70;;;;;;;11.86;72.79;95405.72;5012033;28;20617;-77
2021/08/26 03:03:13;;;;;;;12.33;7.33;;;;;;;11.87;73.01;95396.94;4994779;28;20207;-77
2021/08/26 03:05:38;;;;;;;11.17;7.67;;;;;;;11.89;72.99;95389.78;5011940;28;20197;-77
2021/08/26 03:08:04;;;;;;;10.80;7.57;;;;;;;11.90;72.97;95396.59;5013173;28;20226;-77
2021/08/26 03:10:29;;;;;;;9.43;7.43;;;;;;;11.91;72.86;95388.63;5013211;28;20187;-77
2021/08/26 03:12:55;;;;;;;11.40;7.63;;;;;;;11.90;73.03;95387.00;5011269;28;20258;-77
2021/08/26 03:15:20;;;;;;;9.77;7.33;;;;;;;11.94;72.98;95391.91;5011696;28;20562;-77
2021/08/26 03:17:46;;;;;;;9.70;7.40;;;;;;;11.94;72.98;95387.53;5010883;28;20587;-77
2021/08/26 03:20:12;;;;;;;11.53;7.13;;;;;;;11.97;72.88;95391.59;4995380;28;20175;-78
2021/08/26 03:22:37;;;;;;;9.63;7.80;;;;;;;12.00;72.80;95388.66;5010578;28;20206;-77
2021/08/26 03:25:04;;;;;;;10.60;7.57;;;;;;;12.01;72.61;95385.88;5011432;28;20222;-77
2021/08/26 03:27:29;;;;;;;11.90;7.23;;;;;;;12.02;72.43;95374.53;5011093;28;20683;-77
2021/08/26 03:29:55;;;;;;;12.20;8.20;;;;;;;12.05;72.57;95383.78;5011709;28;20274;-78
2021/08/26 03:32:20;;;;;;;15.73;7.20;;;;;;;12.06;72.78;95381.03;5011937;28;20205;-77
2021/08/26 03:34:46;;;;;;;9.27;6.40;;;;;;;12.07;72.31;95379.22;5012858;28;20261;-78
2021/08/26 03:37:11;;;;;;;10.43;6.93;;;;;;;12.06;72.40;95375.00;5012627;28;20199;-78
2021/08/26 03:39:36;;;;;;;10.20;7.37;;;;;;;12.08;72.47;95375.66;5012813;28;20242;-78
2021/08/26 03:42:02;;;;;;;9.13;6.57;;;;;;;12.06;72.57;95375.81;5011912;28;20523;-78
2021/08/26 03:44:27;;;;;;;12.07;7.50;;;;;;;12.05;72.65;95376.78;5012732;28;20179;-78
2021/08/26 03:46:53;;;;;;;7.47;6.03;;;;;;;12.06;72.51;95386.22;4995681;28;20291;-77
2021/08/26 03:49:18;;;;;;;11.87;6.87;;;;;;;12.09;72.34;95383.28;4994978;28;20182;-78
2021/08/26 03:51:43;;;;;;;11.97;7.47;;;;;;;12.10;72.30;95384.09;5010608;28;20517;-78
2021/08/26 03:54:09;;;;;;;13.37;7.20;;;;;;;12.11;72.21;95383.97;5011114;28;20187;-78
2021/08/26 03:56:34;;;;;;;8.27;6.50;;;;;;;12.12;72.11;95380.38;5012392;28;20182;-78
2021/08/26 03:58:59;;;;;;;11.70;7.47;;;;;;;12.14;72.32;95388.03;4994495;28;20265;-78
2021/08/26 04:01:25;;;;;;;9.40;6.73;;;;;;;12.15;72.57;95368.84;5010479;28;20189;-78
2021/08/26 04:03:50;;;;;;;15.03;6.70;;;;;;;12.18;72.36;95369.31;4995164;28;20215;-78
2021/08/26 04:06:15;;;;;;;10.53;6.87;;;;;;;12.17;72.35;95375.50;4995749;28;20195;-79
2021/08/26 04:08:41;;;;;;;10.47;7.40;;;;;;;12.21;72.65;95375.19;5012021;28;20292;-78
2021/08/26 04:11:06;;;;;;;10.60;7.23;;;;;;;12.19;72.48;95376.16;5011798;28;20190;-79
2021/08/26 04:13:31;;;;;;;12.33;7.53;;;;;;;12.22;72.51;95366.41;5007543;28;20193;-78
2021/08/26 04:15:57;;;;;;;11.83;7.53;;;;;;;12.23;72.36;95371.44;5031504;28;20611;-79
2021/08/26 04:18:22;;;;;;;10.77;6.67;;;;;;;12.28;72.13;95368.34;5031320;28;20253;-79
2021/08/26 04:20:47;;;;;;;8.80;6.60;;;;;;;12.27;71.96;95372.72;5048322;28;20186;-79
2021/08/26 04:23:12;;;;;;;9.70;7.23;;;;;;;12.29;72.26;95370.81;5030767;28;20214;-79
2021/08/26 04:25:38;;;;;;;11.30;6.47;;;;;;;12.29;72.32;95364.78;5048242;28;20179;-79
2021/08/26 04:28:04;;;;;;;11.77;7.00;;;;;;;12.31;72.14;95371.44;5031665;28;20617;-79
2021/08/26 04:30:30;;;;;;;11.03;6.50;;;;;;;12.35;72.26;95382.34;5038726;28;20175;-77
2021/08/26 04:32:55;;;;;;;10.80;7.33;;;;;;;12.37;72.15;95370.81;5054206;28;20221;-79
2021/08/26 04:35:20;;;;;;;10.30;7.17;;;;;;;12.41;72.21;95368.69;5034329;28;20212;-79
2021/08/26 04:37:46;;;;;;;11.27;7.30;;;;;;;12.46;71.51;95367.22;5051060;28;20198;-80
2021/08/26 04:40:11;;;;;;;7.53;5.77;;;;;;;12.46;71.67;95358.59;5052441;28;20171;-79
2021/08/26 04:42:37;;;;;;;14.43;7.50;;;;;;;12.45;71.87;95359.56;5036239;28;20716;-80
2021/08/26 04:45:02;;;;;;;12.20;7.27;;;;;;;12.46;71.68;95359.41;5036606;28;20201;-80
2021/08/26 04:47:27;;;;;;;12.60;7.60;;;;;;;12.45;71.84;95359.56;5052171;28;20293;-79
2021/08/26 04:49:53;;;;;;;11.50;7.03;;;;;;;12.49;71.82;95355.66;5034624;28;20191;-79
2021/08/26 04:52:18;;;;;;;11.27;6.77;;;;;;;12.52;71.76;95354.50;5051789;28;20190;-80
2021/08/26 04:54:43;;;;;;;11.90;7.47;;;;;;;12.49;71.78;95355.66;5052062;28;20671;-79
2021/08/26 04:57:09;;;;;;;9.43;7.10;;;;;;;12.54;71.57;95357.75;5052284;28;20210;-79
2021/08/26 04:59:34;;;;;;;11.03;7.00;;;;;;;12.57;71.44;95352.25;5051555;28;20182;-80
2021/08/26 05:01:59;;;;;;;10.60;7.70;;;;;;;12.59;71.09;95356.28;5034559;28;20224;-79
2021/08/26 05:04:25;;;;;;;11.53;7.53;;;;;;;12.56;71.42;95361.84;5051498;28;20232;-77
2021/08/26 05:06:51;;;;;;;13.63;8.10;;;;;;;12.57;71.28;95363.47;5034887;28;20182;-79
2021/08/26 05:09:17;;;;;;;11.20;7.37;;;;;;;12.61;71.20;95359.53;5035423;28;20174;-80
2021/08/26 05:11:42;;;;;;;13.20;7.00;;;;;;;12.62;71.45;95353.34;5050159;28;20174;-80
2021/08/26 05:14:07;;;;;;;10.67;7.50;;;;;;;12.71;71.34;95352.38;5037182;28;20339;-80
2021/08/26 05:16:33;;;;;;;14.43;7.20;;;;;;;12.72;71.16;95354.00;5034596;28;20237;-79
2021/08/26 05:18:58;;;;;;;14.30;8.13;;;;;;;12.72;71.32;95361.84;5051835;28;20210;-80
2021/08/26 05:21:23;;;;;;;13.63;7.83;;;;;;;12.76;71.13;95362.31;5035649;28;20211;-79
2021/08/26 05:23:48;;;;;;;9.83;7.33;;;;;;;12.71;71.31;95364.56;5051504;28;21101;-80
2021/08/26 05:26:14;;;;;;;10.43;7.90;;;;;;;12.70;71.41;95366.38;5033307;28;20224;-77
2021/08/26 05:28:41;;;;;;;11.23;8.93;;;;;;;12.69;71.54;95364.75;5032820;28;20694;-77
2021/08/26 05:31:06;;;;;;;12.80;8.30;;;;;;;12.77;71.44;95356.91;5050127;28;20182;-79
2021/08/26 05:33:31;;;;;;;11.30;8.60;;;;;;;12.82;71.55;95353.03;5049356;28;20181;-80
2021/08/26 05:35:57;;;;;;;13.63;9.33;;;;;;;12.85;71.61;95352.69;5049803;28;20178;-81
2021/08/26 05:38:22;;;;;;;13.97;10.43;;;;;;;12.90;71.71;95353.81;5050202;28;20492;-80
2021/08/26 05:40:47;;;;;;;11.87;9.70;;;;;;;12.97;71.56;95349.53;5049570;28;20715;-79
2021/08/26 05:43:12;;;;;;;10.53;8.67;;;;;;;13.02;71.66;95356.88;5031256;28;20206;-80
2021/08/26 05:45:38;;;;;;;13.97;9.97;;;;;;;13.01;71.84;95368.28;5032215;28;20182;-80
2021/08/26 05:48:03;;;;;;;13.50;10.60;;;;;;;13.01;71.98;95361.28;5049327;28;20225;-81
2021/08/26 05:50:29;;;;;;;16.07;10.87;;;;;;;13.15;71.32;95357.16;5034037;28;20670;-80
2021/08/26 05:52:54;;;;;;;15.90;11.10;;;;;;;13.14;71.40;95365.94;5015511;28;20175;-81
2021/08/26 05:55:19;;;;;;;13.93;11.00;;;;;;;13.21;71.43;95361.72;5049309;28;20268;-80
2021/08/26 05:57:45;;;;;;;13.73;11.10;;;;;;;13.26;70.93;95369.88;5016043;28;20305;-80
2021/08/26 06:00:11;;;;;;;17.20;11.97;;;;;;;13.33;70.67;95367.38;5049504;28;20175;-80
2021/08/26 06:02:36;;;;;;;14.37;11.27;;;;;;;13.24;71.25;95358.78;5032963;28;20275;-80
2021/08/26 06:05:02;;;;;;;16.43;12.03;;;;;;;13.30;71.36;95359.91;5049047;28;20581;-80
2021/08/26 06:07:27;;;;;;;14.43;11.00;;;;;;;13.29;71.60;95359.09;5033698;28;20225;-79
2021/08/26 06:09:52;;;;;;;15.37;10.47;;;;;;;13.37;71.15;95365.28;5032222;28;20388;-80
2021/08/26 06:12:18;;;;;;;14.37;10.33;;;;;;;13.36;71.11;95361.84;5050972;28;20286;-79
2021/08/26 06:14:43;;;;;;;17.57;10.70;;;;;;;13.37;70.91;95363.47;5049064;28;20186;-79
2021/08/26 06:17:08;;;;;;;14.97;10.13;;;;;;;13.38;70.94;95362.50;5048873;28;20206;-79
2021/08/26 06:19:34;;;;;;;14.37;9.60;;;;;;;13.37;70.97;95360.88;5048481;28;20186;-80
2021/08/26 06:21:59;;;;;;;10.47;8.50;;;;;;;13.46;70.52;95359.84;5047066;28;20714;-79
2021/08/26 06:24:24;;;;;;;10.83;8.53;;;;;;;13.47;70.09;95371.09;5032059;28;20178;-79
2021/08/26 06:26:50;;;;;;;13.17;9.93;;;;;;;13.41;70.09;95369.16;5032013;28;20183;-80
2021/08/26 06:29:15;;;;;;;12.43;8.73;;;;;;;13.48;70.08;95354.47;5048756;28;20209;-79
2021/08/26 06:31:40;;;;;;;14.37;8.53;;;;;;;13.52;70.12;95364.41;5030386;28;20537;-78
2021/08/26 06:34:06;;;;;;;13.50;8.87;;;;;;;13.61;69.52;95357.34;5048715;28;20209;-80
2021/08/26 06:36:31;;;;;;;13.90;8.40;;;;;;;13.74;69.05;95372.44;5033505;28;20178;-80
2021/08/26 06:38:58;;;;;;;10.73;7.77;;;;;;;13.93;68.77;95365.97;5041496;28;20194;-81
2021/08/26 06:41:25;;;;;;;10.17;8.00;;;;;;;14.02;68.74;95370.16;5050726;28;20676;-80
2021/08/26 06:43:50;;;;;;;11.00;8.13;;;;;;;13.96;68.37;95376.06;5036719;28;20315;-80
2021/08/26 06:46:15;;;;;;;13.50;7.97;;;;;;;14.06;68.25;95372.25;5032260;28;20178;-80
2021/08/26 06:48:41;;;;;;;12.53;8.30;;;;;;;14.03;68.24;95369.97;5048171;28;20204;-78
2021/08/26 06:51:06;;;;;;;12.73;7.57;;;;;;;14.09;68.99;95366.69;5048419;28;20646;-77
2021/08/26 06:53:31;;;;;;;14.13;8.40;;;;;;;13.90;69.08;95377.56;5042214;28;20186;-77
2021/08/26 06:55:57;;;;;;;11.17;7.67;;;;;;;13.97;69.39;95377.72;5043938;28;20666;-76
2021/08/26 06:58:22;;;;;;;12.63;8.50;;;;;;;14.03;69.11;95384.81;5025384;28;20210;-77
2021/08/26 07:00:47;;;;;;;16.00;8.27;;;;;;;13.90;69.41;95382.78;5027756;28;20178;-76
2021/08/26 07:03:13;;;;;;;12.37;7.70;;;;;;;13.84;69.53;95379.06;5043813;28;20302;-78
2021/08/26 07:05:38;;;;;;;12.47;8.60;;;;;;;13.82;70.22;95381.03;5043757;28;20662;-76
2021/08/26 07:08:04;;;;;;;11.53;7.27;;;;;;;14.00;69.48;95379.97;5029358;28;20205;-75
2021/08/26 07:10:29;;;;;;;11.17;6.83;;;;;;;13.94;69.67;95378.03;5011167;28;20206;-75
2021/08/26 07:12:54;;;;;;;10.87;8.03;;;;;;;13.91;69.77;95383.59;5025418;28;20409;-76
2021/08/26 07:15:24;;;;;;;12.37;7.53;;;;;;;14.03;69.48;95374.38;5029870;28;20236;-76
2021/08/26 07:17:49;;;;;;;9.80;7.20;;;;;;;14.03;69.91;95377.00;5029393;28;20206;-76
2021/08/26 07:20:15;;;;;;;10.00;7.90;;;;;;;14.04;69.30;95373.41;5046543;28;20560;-78
2021/08/26 07:22:40;;;;;;;10.73;7.40;;;;;;;14.38;68.83;95371.19;5029713;28;20199;-77
2021/08/26 07:25:06;;;;;;;10.97;7.50;;;;;;;14.60;68.14;95368.78;5030392;28;20179;-76
2021/08/26 07:27:31;;;;;;;10.17;7.50;;;;;;;14.94;67.72;95368.31;5046821;28;20569;-77
2021/08/26 07:29:57;;;;;;;10.80;7.87;;;;;;;14.95;66.88;95373.34;5032052;28;20175;-78
2021/08/26 07:32:22;;;;;;;9.63;7.57;;;;;;;15.29;65.79;95369.41;5032168;28;20185;-80
2021/08/26 07:34:47;;;;;;;10.00;8.27;;;;;;;15.26;66.41;95369.75;5031020;28;20181;-80
2021/08/26 07:37:12;;;;;;;11.50;7.33;;;;;;;15.76;65.18;95376.06;5015410;28;20194;-80
2021/08/26 07:39:38;;;;;;;11.40;7.80;;;;;;;15.37;66.02;95361.47;5032269;28;20317;-80
2021/08/26 07:42:03;;;;;;;9.40;8.20;;;;;;;15.71;65.41;95366.13;5031224;28;20179;-80
2021/08/26 07:44:28;;;;;;;11.63;7.80;;;;;;;15.75;65.12;95363.97;5030785;28;20213;-80
2021/08/26 07:46:54;;;;;;;13.05;9.68;;;;;;;15.46;65.46;95360.38;5029088;28;20178;-80
2021/08/26 07:49:19;;;;;;;14.02;8.70;;;;;;;15.44;66.49;95366.78;5031364;28;20178;-80
2021/08/26 07:51:44;;;;;;;12.57;9.15;;;;;;;15.22;66.59;95358.03;5030471;28;20178;-80
2021/08/26 07:54:10;;;;;;;13.63;9.07;;;;;;;15.24;67.08;95371.75;5047400;28;20209;-80
2021/08/26 07:56:35;;;;;;;13.65;9.43;;;;;;;15.05;67.26;95361.81;5032818;28;20611;-80
2021/08/26 07:59:00;;;;;;;12.52;9.25;;;;;;;15.06;67.87;95364.25;5034760;28;20206;-81
2021/08/26 08:01:26;;;;;;;13.52;10.77;;;;;;;14.89;68.27;95363.59;5047295;28;20183;-80
2021/08/26 08:03:51;;;;;;;13.67;10.23;;;;;;;14.82;68.87;95364.50;5030766;28;20202;-78
2021/08/26 08:06:18;;;;;;;12.80;10.60;;;;;;;14.66;69.44;95373.28;5014849;28;20201;-79
2021/08/26 08:08:43;;;;;;;12.35;10.30;;;;;;;14.33;70.82;95373.53;5014663;28;20198;-80
2021/08/26 08:11:08;;;;;;;12.93;10.63;;;;;;;14.13;71.08;95367.97;5033757;28;20198;-80
2021/08/26 08:13:34;;;;;;;12.83;10.83;;;;;;;13.81;72.58;95374.19;5034712;28;20182;-80
2021/08/26 08:16:00;;;;;;;15.80;11.30;;;;;;;14.04;72.38;95378.63;5035317;28;20185;-81
2021/08/26 08:18:26;;;;;;;11.97;10.67;;;;;;;13.84;73.13;95373.84;5036883;28;20190;-82
2021/08/26 08:20:51;;;;;;;15.93;12.53;;;;;;;13.99;74.63;95379.16;5051880;28;20529;-78
2021/08/26 08:23:16;;;;;;;13.67;11.47;;;;;;;14.01;75.39;95379.78;5035992;28;20678;-80
2021/08/26 08:25:42;;;;;;;15.73;13.17;;;;;;;13.89;76.98;95375.94;5051864;28;20175;-80
2021/08/26 08:28:17;;;;;;;15.97;12.23;;;;;;;14.05;76.81;95372.44;5018425;28;20209;-78
2021/08/26 08:30:43;;;;;;;16.07;12.20;;;;;;;14.01;78.04;95373.75;5036846;28;20241;-78
2021/08/26 08:33:09;;;;;;;15.37;13.00;;;;;;;13.98;78.48;95387.16;5033336;28;20197;-77
2021/08/26 08:35:34;;;;;;;13.83;12.10;;;;;;;14.04;78.01;95376.00;5049668;28;20182;-77
2021/08/26 08:38:00;;;;;;;13.87;12.37;;;;;;;13.99;79.11;95380.94;5035673;28;20213;-78
2021/08/26 08:40:25;;;;;;;16.27;12.77;;;;;;;14.00;78.76;95378.16;5037207;28;20190;-77
2021/08/26 08:42:52;;;;;;;15.97;12.57;;;;;;;13.89;78.51;95376.75;5035031;28;20226;-78
2021/08/26 08:45:17;;;;;;;15.43;12.73;;;;;;;13.97;78.07;95377.72;5036335;28;20175;-77
2021/08/26 08:47:43;;;;;;;14.97;12.07;;;;;;;14.11;78.90;95367.31;5051424;28;20206;-77
2021/08/26 08:50:09;;;;;;;15.10;13.33;;;;;;;14.51;78.16;95385.53;5036951;28;20186;-77
2021/08/26 08:52:39;;;;;;;15.70;13.50;;;;;;;14.49;78.01;95385.69;5051712;28;20182;-77
2021/08/26 08:55:06;;;;;;;13.47;12.00;;;;;;;14.44;77.70;95380.16;5036060;28;20171;-78
2021/08/26 08:57:31;;;;;;;14.17;11.13;;;;;;;14.80;76.42;95376.94;5037554;28;20755;-78
2021/08/26 08:59:56;;;;;;;12.77;10.70;;;;;;;14.87;76.20;95380.47;5035823;28;20223;-78
2021/08/26 09:02:22;;;;;;;11.83;10.53;;;;;;;14.90;77.16;95382.72;5036794;28;20293;-78
2021/08/26 09:05:13;;;;;;;12.25;10.98;;;;;;;14.86;77.07;95387.50;5032333;28;20674;-79
2021/08/26 09:07:39;;;;;;;12.53;10.17;;;;;;;14.73;76.99;95385.47;5028908;28;20214;-78
2021/08/26 09:10:06;;;;;;;13.50;10.90;;;;;;;14.78;77.51;95389.38;5034176;28;20196;-78
2021/08/26 09:12:40;;;;;;;11.43;9.63;;;;;;;14.52;78.06;95389.75;5050191;28;20770;-78
2021/08/26 09:15:10;;;;;;;10.63;9.50;;;;;;;14.39;78.98;95388.50;5035569;28;20269;-79
2021/08/26 09:17:36;;;;;;;10.87;9.77;;;;;;;14.50;78.44;95383.91;5050257;28;20665;-78
2021/08/26 09:20:03;;;;;;;9.98;8.98;;;;;;;14.29;78.76;95387.91;5034447;28;20207;-79
2021/08/26 09:22:28;;;;;;;11.27;8.73;;;;;;;13.94;79.86;95381.44;5017583;28;20225;-79
2021/08/26 09:24:54;;;;;;;10.40;8.97;;;;;;;14.03;80.34;95387.44;5052549;28;20179;-78
2021/08/26 09:27:31;;;;;;;8.57;7.77;;;;;;;14.05;79.39;95380.28;5037276;28;20717;-78
2021/08/26 09:30:02;;;;;;;7.77;6.97;;;;;;;14.22;79.21;95392.19;5036119;28;20226;-79
2021/08/26 09:32:40;;;;;;;7.95;6.82;;;;;;;14.18;79.54;95393.56;5037516;28;20277;-81
2021/08/26 09:35:10;;;;;;;6.60;6.00;;;;;;;14.21;79.13;95395.81;5037983;28;20236;-81
2021/08/26 09:37:43;;;;;;;6.40;5.80;;;;;;;14.03;79.07;95397.88;5047541;28;20194;-79
2021/08/26 09:40:09;;;;;;;7.05;6.43;;;;;;;14.08;79.73;95400.81;5033194;28;20221;-80
2021/08/26 09:42:35;;;;;;;6.10;5.60;;;;;;;14.07;80.52;95396.56;5041088;28;20640;-80
2021/08/26 09:45:24;;;;;;;6.13;5.43;;;;;;;14.12;80.44;95396.84;5038990;28;20182;-80
2021/08/26 09:48:11;;;;;;;5.70;5.20;;;;;;;14.21;80.27;95400.22;5055099;28;20190;-79
2021/08/26 09:50:48;;;;;;;6.17;4.87;;;;;;;14.01;80.09;95410.31;5057114;28;20215;-81
2021/08/26 09:53:21;;;;;;;5.00;4.60;;;;;;;14.08;80.59;95411.25;5052997;28;20278;-75
2021/08/26 09:55:50;;;;;;;4.87;4.30;;;;;;;14.05;80.34;95412.41;5036301;28;20182;-78
2021/08/26 09:58:19;;;;;;;3.50;3.20;;;;;;;13.98;80.00;95406.25;5043851;28;20215;-81
2021/08/26 10:00:45;;;;;;;3.07;2.77;;;;;;;13.74;80.52;95409.78;5049048;28;20214;-80
2021/08/26 10:03:12;;;;;;;3.50;3.10;;;;;;;13.72;81.41;95411.75;5048160;28;20298;-79
2021/08/26 10:05:38;;;;;;;2.90;2.70;;;;;;;13.49;82.55;95418.69;5016150;28;20240;-81
2021/08/26 10:08:05;;;;;;;5.40;4.43;;;;;;;13.43;81.28;95429.78;5048685;28;20720;-80
2021/08/26 10:10:32;;;;;;;6.27;5.07;;;;;;;12.82;78.43;95434.63;5031587;28;20298;-81
2021/08/26 10:12:58;;;;;;;6.00;5.33;;;;;;;13.17;79.32;95438.66;5048376;28;20614;-81
2021/08/26 10:15:24;;;;;;;5.90;5.07;;;;;;;13.36;80.40;95434.88;5048869;28;20188;-81
2021/08/26 10:17:49;;;;;;;8.43;5.57;;;;;;;13.51;79.30;95434.97;5048453;28;20657;-80
2021/08/26 10:20:15;;;;;;;6.80;5.30;;;;;;;13.36;78.06;95440.09;5048718;28;20690;-80
2021/08/26 10:22:40;;;;;;;6.37;5.60;;;;;;;13.48;78.76;95440.53;5031907;28;20286;-82
2021/08/26 10:25:07;;;;;;;8.30;5.83;;;;;;;13.17;79.47;95436.03;5033106;28;20178;-79
2021/08/26 10:27:32;;;;;;;6.93;5.37;;;;;;;13.21;78.57;95432.13;5033379;28;20201;-81
2021/08/26 10:29:57;;;;;;;6.83;6.10;;;;;;;13.53;78.36;95430.44;5051390;28;20210;-82
2021/08/26 10:32:24;;;;;;;10.90;6.03;;;;;;;13.60;77.75;95439.19;5049382;28;20197;-82
2021/08/26 10:35:11;;;;;;;8.73;7.03;;;;;;;13.35;78.08;95438.47;5059376;28;20185;-80
2021/08/26 10:37:56;;;;;;;9.00;7.20;;;;;;;13.67;78.05;95437.53;5040930;28;20202;-82
2021/08/26 10:40:35;;;;;;;7.13;5.00;;;;;;;14.06;76.29;95428.88;5018914;28;20186;-81
2021/08/26 10:43:01;;;;;;;7.20;5.33;;;;;;;14.41;76.30;95433.56;5051236;28;20247;-81
2021/08/26 10:45:29;;;;;;;9.13;5.37;;;;;;;14.70;75.31;95425.03;5035169;28;20171;-81
2021/08/26 10:47:56;;;;;;;6.70;5.13;;;;;;;15.18;73.25;95414.31;5051368;28;20233;-82
2021/08/26 10:50:32;;;;;;;5.73;5.13;;;;;;;15.70;72.30;95416.06;5036746;28;20200;-83
2021/08/26 10:53:10;;;;;;;6.47;5.07;;;;;;;15.95;71.90;95416.56;5036165;28;20170;-82
2021/08/26 10:55:40;;;;;;;6.37;4.67;;;;;;;16.15;72.38;95418.41;5036594;28;20795;-80
2021/08/26 10:58:21;;;;;;;6.50;4.95;;;;;;;16.28;72.28;95417.75;5035308;28;20210;-82
2021/08/26 11:00:54;;;;;;;7.80;4.95;;;;;;;15.85;70.42;95409.00;5031414;28;20178;-81
2021/08/26 11:03:31;;;;;;;6.80;4.95;;;;;;;15.90;70.59;95413.69;5031767;28;20225;-81
2021/08/26 11:05:57;;;;;;;6.50;5.28;;;;;;;15.80;70.53;95419.19;5031791;28;20289;-80
2021/08/26 11:08:26;;;;;;;6.90;5.00;;;;;;;15.85;69.17;95414.25;5030503;28;20297;-81
2021/08/26 11:10:52;;;;;;;6.57;4.85;;;;;;;15.34;69.19;95408.91;5047505;28;20571;-79
2021/08/26 11:13:33;;;;;;;7.80;5.45;;;;;;;15.64;68.85;95425.47;5046811;28;20185;-79
2021/08/26 11:16:23;;;;;;;6.93;5.57;;;;;;;15.82;68.42;95418.03;5047410;28;20273;-81
2021/08/26 11:18:49;;;;;;;7.15;6.32;;;;;;;15.77;68.87;95409.91;5032112;28;20199;-77
2021/08/26 11:21:14;;;;;;;7.88;5.50;;;;;;;15.75;66.83;95405.88;5031462;28;20316;-79
2021/08/26 11:23:45;;;;;;;8.25;5.95;;;;;;;16.09;67.50;95402.63;5047870;28;20225;-80
2021/08/26 11:26:43;;;;;;;9.23;5.80;;;;;;;15.82;65.37;95406.75;5015017;28;20592;-79
2021/08/26 11:29:35;;;;;;;6.55;5.40;;;;;;;15.81;65.30;95403.34;5031519;28;20201;-80
2021/08/26 11:32:07;;;;;;;7.32;5.47;;;;;;;15.73;65.93;95397.38;5016474;28;20606;-79